createdAt,value
2017-11-16T00:01:37.423Z,99.90
2017-11-16T00:04:05.291Z,99.90
2017-11-16T00:06:33.158Z,99.90
2017-11-16T00:09:01.026Z,99.90
2017-11-16T00:11:28.892Z,99.90
2017-11-16T00:13:56.759Z,99.90
2017-11-16T00:16:24.629Z,99.90
2017-11-16T00:18:52.495Z,99.90
2017-11-16T00:21:20.363Z,99.90
2017-11-16T00:23:48.233Z,99.90
2017-11-16T00:26:16.098Z,99.90
2017-11-16T00:28:43.963Z,99.90
2017-11-16T00:31:11.831Z,99.90
2017-11-16T00:33:39.698Z,99.90
2017-11-16T00:36:07.565Z,99.90
2017-11-16T00:38:35.432Z,99.90
2017-11-16T00:41:03.300Z,99.90
2017-11-16T00:43:31.167Z,99.90
2017-11-16T00:45:59.039Z,99.90
2017-11-16T00:48:26.902Z,99.90
2017-11-16T00:50:54.769Z,99.90
2017-11-16T00:53:22.637Z,99.90
2017-11-16T00:55:50.503Z,99.90
2017-11-16T00:58:18.371Z,99.90
2017-11-16T01:00:46.241Z,99.90
2017-11-16T01:03:14.106Z,99.90
2017-11-16T01:05:41.973Z,99.90
2017-11-16T01:08:09.840Z,99.90
2017-11-16T01:10:37.710Z,99.70
2017-11-16T01:13:05.576Z,99.60
2017-11-16T01:15:33.443Z,99.60
2017-11-16T01:18:01.314Z,99.70
2017-11-16T01:20:29.179Z,99.70
2017-11-16T01:22:57.045Z,99.80
2017-11-16T01:25:24.911Z,99.90
2017-11-16T01:27:52.779Z,99.70
2017-11-16T01:30:20.651Z,99.50
2017-11-16T01:32:48.519Z,99.10
2017-11-16T01:35:16.383Z,99.20
2017-11-16T01:37:44.251Z,99.10
2017-11-16T01:40:12.121Z,99.20
2017-11-16T01:42:39.988Z,98.90
2017-11-16T01:45:07.854Z,99.30
2017-11-16T01:47:35.837Z,99.30
2017-11-16T01:50:03.791Z,99.10
2017-11-16T01:52:31.663Z,99.00
2017-11-16T01:54:59.524Z,98.60
2017-11-16T01:57:27.391Z,99.00
2017-11-16T01:59:55.266Z,99.30
2017-11-16T02:02:34.903Z,99.80
2017-11-16T02:05:02.773Z,99.90
2017-11-16T02:07:30.637Z,99.80
2017-11-16T02:09:58.508Z,99.80
2017-11-16T02:12:26.371Z,99.70
2017-11-16T02:14:54.240Z,99.50
2017-11-16T02:17:22.106Z,99.10
2017-11-16T02:19:49.975Z,99.40
2017-11-16T02:22:17.842Z,99.50
2017-11-16T02:24:45.810Z,99.90
2017-11-16T02:27:13.677Z,99.80
2017-11-16T02:29:41.545Z,99.60
2017-11-16T02:32:09.417Z,99.40
2017-11-16T02:34:37.281Z,99.40
2017-11-16T02:37:05.152Z,99.00
2017-11-16T02:39:33.120Z,98.90
2017-11-16T02:42:01.086Z,98.30
2017-11-16T02:44:29.057Z,99.40
2017-11-16T02:46:57.026Z,99.70
2017-11-16T02:49:24.894Z,99.60
2017-11-16T02:51:52.864Z,99.90
2017-11-16T02:54:20.833Z,99.80
2017-11-16T02:56:48.803Z,99.90
2017-11-16T02:59:16.670Z,99.90
2017-11-16T03:01:44.538Z,99.90
2017-11-16T03:04:12.421Z,99.80
2017-11-16T03:06:40.271Z,99.90
2017-11-16T03:09:08.242Z,99.90
2017-11-16T03:11:36.109Z,99.90
2017-11-16T03:14:03.976Z,99.80
2017-11-16T03:16:31.844Z,99.50
2017-11-16T03:18:59.751Z,99.30
2017-11-16T03:21:27.578Z,99.50
2017-11-16T03:23:55.446Z,99.30
2017-11-16T03:26:23.312Z,99.70
2017-11-16T03:28:51.183Z,99.70
2017-11-16T03:31:19.049Z,99.30
2017-11-16T03:33:46.914Z,99.40
2017-11-16T03:36:14.781Z,99.70
2017-11-16T03:38:42.649Z,99.90
2017-11-16T03:41:10.516Z,99.80
2017-11-16T03:43:38.383Z,99.80
2017-11-16T03:46:06.251Z,99.60
2017-11-16T03:48:34.117Z,99.40
2017-11-16T03:51:01.986Z,99.50
2017-11-16T03:53:29.857Z,99.70
2017-11-16T03:55:57.721Z,99.70
2017-11-16T03:58:25.587Z,99.50
2017-11-16T04:00:53.455Z,99.30
2017-11-16T04:03:21.323Z,99.10
2017-11-16T04:05:49.196Z,99.40
2017-11-16T04:08:17.058Z,99.40
2017-11-16T04:10:44.924Z,99.10
2017-11-16T04:13:12.793Z,99.30
2017-11-16T04:15:40.662Z,99.40
2017-11-16T04:18:08.531Z,99.30
2017-11-16T04:20:36.394Z,98.90
2017-11-16T04:23:04.262Z,98.40
2017-11-16T04:25:32.128Z,98.20
2017-11-16T04:27:59.995Z,99.00
2017-11-16T04:30:27.864Z,99.40
2017-11-16T04:32:55.730Z,99.50
2017-11-16T04:35:23.598Z,99.20
2017-11-16T04:37:51.466Z,99.60
2017-11-16T04:40:19.331Z,99.90
2017-11-16T04:42:47.204Z,99.90
2017-11-16T04:45:15.071Z,99.90
2017-11-16T04:47:42.935Z,99.90
2017-11-16T04:50:10.806Z,99.90
2017-11-16T04:52:38.672Z,99.90
2017-11-16T04:55:06.541Z,99.50
2017-11-16T04:57:34.407Z,99.80
2017-11-16T05:00:02.272Z,99.90
2017-11-16T05:02:30.139Z,99.60
2017-11-16T05:04:58.005Z,99.90
2017-11-16T05:07:26.763Z,99.80
2017-11-16T05:09:54.665Z,99.90
2017-11-16T05:12:22.529Z,99.90
2017-11-16T05:14:50.399Z,99.90
2017-11-16T05:17:18.267Z,99.90
2017-11-16T05:19:46.132Z,99.90
2017-11-16T05:22:13.998Z,99.90
2017-11-16T05:24:41.865Z,99.90
2017-11-16T05:27:09.733Z,99.90
2017-11-16T05:29:37.600Z,99.90
2017-11-16T05:32:05.476Z,99.90
2017-11-16T05:34:33.338Z,99.90
2017-11-16T05:37:01.203Z,99.90
2017-11-16T05:39:29.070Z,99.90
2017-11-16T05:41:56.939Z,99.90
2017-11-16T05:44:24.907Z,99.90
2017-11-16T05:46:52.776Z,99.90
2017-11-16T05:49:20.641Z,99.90
2017-11-16T05:51:48.509Z,99.90
2017-11-16T05:54:16.376Z,99.90
2017-11-16T05:56:44.243Z,99.90
2017-11-16T05:59:12.111Z,99.80
2017-11-16T06:01:39.977Z,99.90
2017-11-16T06:04:07.845Z,99.90
2017-11-16T06:06:35.713Z,99.80
2017-11-16T06:09:03.684Z,99.50
2017-11-16T06:11:31.549Z,99.30
2017-11-16T06:13:59.416Z,99.40
2017-11-16T06:16:27.284Z,99.50
2017-11-16T06:18:55.152Z,99.90
2017-11-16T06:21:23.020Z,99.90
2017-11-16T06:23:50.925Z,99.90
2017-11-16T06:26:18.788Z,99.90
2017-11-16T06:28:46.656Z,99.90
2017-11-16T06:31:14.523Z,99.90
2017-11-16T06:33:42.391Z,99.90
2017-11-16T06:36:10.257Z,99.90
2017-11-16T06:38:38.125Z,99.90
2017-11-16T06:41:05.992Z,99.90
2017-11-16T06:43:33.859Z,99.90
2017-11-16T06:46:01.727Z,99.60
2017-11-16T06:48:29.593Z,99.90
2017-11-16T06:50:57.467Z,99.90
2017-11-16T06:53:25.330Z,99.90
2017-11-16T06:55:53.201Z,99.40
2017-11-16T06:58:21.065Z,99.00
2017-11-16T07:00:49.254Z,99.10
2017-11-16T07:03:17.827Z,99.10
2017-11-16T07:05:45.689Z,99.10
2017-11-16T07:08:13.558Z,99.20
2017-11-16T07:10:41.423Z,99.40
2017-11-16T07:13:09.291Z,99.10
2017-11-16T07:15:37.159Z,98.70
2017-11-16T07:18:05.026Z,98.00
2017-11-16T07:20:32.892Z,98.10
2017-11-16T07:23:00.760Z,98.30
2017-11-16T07:25:28.630Z,98.20
2017-11-16T07:27:56.494Z,98.20
2017-11-16T07:30:24.363Z,98.30
2017-11-16T07:32:52.229Z,98.40
2017-11-16T07:35:20.101Z,98.80
2017-11-16T07:37:47.963Z,98.90
2017-11-16T07:40:15.831Z,98.80
2017-11-16T07:42:43.697Z,98.90
2017-11-16T07:45:11.565Z,98.80
2017-11-16T07:47:39.535Z,98.70
2017-11-16T07:50:07.506Z,98.80
2017-11-16T07:52:35.381Z,98.90
2017-11-16T07:55:03.240Z,99.10
2017-11-16T07:57:31.107Z,99.10
2017-11-16T07:59:58.979Z,98.90
2017-11-16T08:02:26.842Z,98.90
2017-11-16T08:04:54.709Z,98.60
2017-11-16T08:07:22.589Z,98.20
2017-11-16T08:09:50.445Z,98.70
2017-11-16T08:12:18.311Z,98.80
2017-11-16T08:14:46.184Z,99.20
2017-11-16T08:17:14.048Z,99.10
2017-11-16T08:19:41.843Z,99.20
2017-11-16T08:22:10.496Z,99.20
2017-11-16T08:24:38.371Z,99.20
2017-11-16T08:27:06.231Z,99.20
2017-11-16T08:29:34.098Z,99.20
2017-11-16T08:32:01.966Z,99.50
2017-11-16T08:34:29.833Z,99.50
2017-11-16T08:36:57.701Z,99.40
2017-11-16T08:39:25.568Z,99.50
2017-11-16T08:41:53.435Z,99.50
2017-11-16T08:44:21.303Z,99.70
2017-11-16T08:46:49.273Z,99.70
2017-11-16T08:49:17.243Z,99.90
2017-11-16T08:51:45.226Z,99.90
2017-11-16T08:54:13.183Z,99.90
2017-11-16T08:56:41.050Z,99.90
2017-11-16T08:59:08.916Z,99.80
2017-11-16T09:01:36.784Z,99.90
2017-11-16T09:04:04.651Z,99.90
2017-11-16T09:06:32.518Z,99.90
2017-11-16T09:09:00.385Z,99.80
2017-11-16T09:11:28.253Z,99.50
2017-11-16T09:13:56.223Z,99.50
2017-11-16T09:16:24.089Z,99.50
2017-11-16T09:18:51.957Z,99.40
2017-11-16T09:21:19.927Z,99.50
2017-11-16T09:23:47.896Z,99.60
2017-11-16T09:26:15.866Z,99.20
2017-11-16T09:28:43.771Z,98.80
2017-11-16T09:31:12.420Z,98.60
2017-11-16T09:33:40.287Z,98.60
2017-11-16T09:36:08.155Z,98.40
2017-11-16T09:38:36.022Z,98.40
2017-11-16T09:41:03.896Z,98.50
2017-11-16T09:43:31.758Z,98.40
2017-11-16T09:45:59.624Z,98.00
2017-11-16T09:48:27.490Z,98.00
2017-11-16T09:50:55.358Z,97.80
2017-11-16T09:53:23.226Z,97.60
2017-11-16T09:55:51.099Z,97.50
2017-11-16T09:58:19.063Z,97.30
2017-11-16T10:00:46.931Z,97.10
2017-11-16T10:03:14.801Z,96.90
2017-11-16T10:05:42.667Z,97.00
2017-11-16T10:08:10.551Z,97.10
2017-11-16T10:10:39.226Z,96.70
2017-11-16T10:13:07.089Z,96.70
2017-11-16T10:15:34.957Z,97.10
2017-11-16T10:18:02.825Z,97.30
2017-11-16T10:20:30.698Z,97.50
2017-11-16T10:22:58.559Z,97.50
2017-11-16T10:25:26.429Z,97.50
2017-11-16T10:27:54.291Z,97.50
2017-11-16T10:30:22.164Z,97.50
2017-11-16T10:32:50.024Z,97.30
2017-11-16T10:35:17.893Z,97.90
2017-11-16T10:37:45.759Z,97.80
2017-11-16T10:40:13.625Z,97.80
2017-11-16T10:42:41.499Z,97.70
2017-11-16T10:45:09.368Z,97.50
2017-11-16T10:47:37.331Z,97.50
2017-11-16T10:50:05.194Z,97.60
2017-11-16T10:52:33.066Z,97.30
2017-11-16T10:55:00.939Z,97.30
2017-11-16T10:57:28.799Z,97.50
2017-11-16T10:59:56.676Z,97.20
2017-11-16T11:02:24.534Z,97.10
2017-11-16T11:04:52.401Z,97.20
2017-11-16T11:07:20.269Z,97.60
2017-11-16T11:09:48.137Z,97.60
2017-11-16T11:12:16.004Z,97.70
2017-11-16T11:14:43.870Z,98.10
2017-11-16T11:17:11.754Z,98.50
2017-11-16T11:19:40.424Z,98.60
2017-11-16T11:22:08.291Z,98.60
2017-11-16T11:24:36.160Z,98.70
2017-11-16T11:27:04.026Z,98.70
2017-11-16T11:29:31.895Z,98.50
2017-11-16T11:31:59.762Z,98.50
2017-11-16T11:34:27.629Z,98.70
2017-11-16T11:36:55.496Z,98.70
2017-11-16T11:39:23.363Z,98.70
2017-11-16T11:41:51.230Z,98.90
2017-11-16T11:44:19.097Z,98.90
2017-11-16T11:46:46.899Z,98.80
2017-11-16T11:49:15.549Z,98.90
2017-11-16T11:51:43.418Z,98.90
2017-11-16T11:54:11.284Z,98.60
2017-11-16T11:56:39.151Z,98.60
2017-11-16T11:59:07.018Z,99.00
2017-11-16T12:01:34.886Z,98.90
2017-11-16T12:04:02.860Z,99.10
2017-11-16T12:06:30.725Z,98.90
2017-11-16T12:08:58.591Z,99.00
2017-11-16T12:11:26.457Z,99.20
2017-11-16T12:13:54.327Z,99.40
2017-11-16T12:16:22.192Z,99.50
2017-11-16T12:18:50.058Z,99.00
2017-11-16T12:21:17.927Z,98.60
2017-11-16T12:23:45.795Z,98.80
2017-11-16T12:26:13.665Z,98.80
2017-11-16T12:28:41.532Z,98.50
2017-11-16T12:31:09.497Z,98.40
2017-11-16T12:33:37.467Z,98.00
2017-11-16T12:36:05.438Z,98.10
2017-11-16T12:38:33.407Z,97.90
2017-11-16T12:41:01.275Z,97.70
2017-11-16T12:43:29.141Z,97.70
2017-11-16T12:45:57.112Z,97.60
2017-11-16T12:48:24.979Z,97.80
2017-11-16T12:50:52.948Z,97.90
2017-11-16T12:53:20.817Z,98.10
2017-11-16T12:55:48.682Z,98.00
2017-11-16T12:58:16.550Z,98.10
2017-11-16T13:00:44.421Z,98.10
2017-11-16T13:03:12.286Z,97.90
2017-11-16T13:05:40.153Z,98.10
2017-11-16T13:08:08.020Z,98.30
2017-11-16T13:10:35.888Z,98.40
2017-11-16T13:13:03.758Z,98.30
2017-11-16T13:15:31.622Z,98.30
2017-11-16T13:17:59.494Z,98.50
2017-11-16T13:20:27.358Z,98.50
2017-11-16T13:22:55.231Z,98.50
2017-11-16T13:25:23.096Z,98.50
2017-11-16T13:27:50.965Z,98.40
2017-11-16T13:30:18.832Z,98.20
2017-11-16T13:32:46.698Z,98.30
2017-11-16T13:35:14.566Z,98.30
2017-11-16T13:37:42.430Z,98.20
2017-11-16T13:40:10.297Z,98.10
2017-11-16T13:42:38.162Z,97.70
2017-11-16T13:45:06.029Z,97.60
2017-11-16T13:47:33.897Z,98.00
2017-11-16T13:50:01.764Z,98.10
2017-11-16T13:52:29.631Z,98.00
2017-11-16T13:54:57.498Z,98.00
2017-11-16T13:57:25.365Z,97.90
2017-11-16T13:59:53.234Z,97.90
2017-11-16T14:02:21.105Z,98.00
2017-11-16T14:04:48.967Z,97.80
2017-11-16T14:07:16.834Z,98.10
2017-11-16T14:09:44.703Z,98.10
2017-11-16T14:12:12.568Z,98.10
2017-11-16T14:14:40.435Z,97.80
2017-11-16T14:17:08.304Z,97.80
2017-11-16T14:22:10.187Z,98.10
2017-11-16T14:24:38.052Z,98.00
2017-11-16T14:27:05.919Z,98.20
2017-11-16T14:29:33.785Z,98.30
2017-11-16T14:32:01.652Z,98.00
2017-11-16T14:34:29.519Z,98.00
2017-11-16T14:36:57.386Z,98.10
2017-11-16T14:39:25.261Z,98.00
2017-11-16T14:41:53.123Z,98.00
2017-11-16T14:44:20.989Z,98.30
2017-11-16T14:46:48.855Z,98.40
2017-11-16T14:49:16.736Z,98.40
2017-11-16T14:51:44.589Z,98.60
2017-11-16T14:54:12.459Z,98.70
2017-11-16T14:56:40.325Z,98.80
2017-11-16T14:59:08.192Z,99.00
2017-11-16T15:01:36.059Z,98.90
2017-11-16T15:04:03.856Z,99.00
2017-11-16T15:06:32.440Z,99.30
2017-11-16T15:09:01.094Z,99.30
2017-11-16T15:11:28.963Z,99.30
2017-11-16T15:13:56.830Z,99.30
2017-11-16T15:16:24.696Z,99.20
2017-11-16T15:18:52.562Z,99.40
2017-11-16T15:21:20.437Z,99.20
2017-11-16T15:23:48.298Z,99.20
2017-11-16T15:26:16.165Z,99.10
2017-11-16T15:28:44.036Z,98.90
2017-11-16T15:31:11.901Z,98.90
2017-11-16T15:33:39.770Z,98.60
2017-11-16T15:36:07.634Z,98.60
2017-11-16T15:38:35.502Z,98.60
2017-11-16T15:41:03.368Z,98.70
2017-11-16T15:43:31.237Z,98.70
2017-11-16T15:45:59.104Z,98.60
2017-11-16T15:48:26.902Z,98.60
2017-11-16T15:50:55.560Z,98.80
2017-11-16T15:53:23.423Z,98.80
2017-11-16T15:55:51.290Z,98.80
2017-11-16T15:58:19.177Z,99.20
2017-11-16T16:00:47.024Z,99.20
2017-11-16T16:03:14.893Z,99.10
2017-11-16T16:05:42.760Z,99.30
2017-11-16T16:08:10.626Z,99.40
2017-11-16T16:10:38.494Z,99.40
2017-11-16T16:13:06.361Z,99.60
2017-11-16T16:15:34.228Z,99.60
2017-11-16T16:18:02.096Z,99.70
2017-11-16T16:20:29.962Z,99.70
2017-11-16T16:22:57.831Z,99.70
2017-11-16T16:25:25.698Z,99.70
2017-11-16T16:27:53.566Z,99.70
2017-11-16T16:30:21.433Z,99.70
2017-11-16T16:32:49.305Z,99.50
2017-11-16T16:35:17.171Z,99.40
2017-11-16T16:37:45.037Z,99.50
2017-11-16T16:40:12.903Z,99.30
2017-11-16T16:42:40.775Z,99.40
2017-11-16T16:45:08.642Z,99.30
2017-11-16T16:47:36.509Z,99.10
2017-11-16T16:50:04.374Z,99.10
2017-11-16T16:52:32.239Z,99.20
2017-11-16T16:55:00.925Z,99.30
2017-11-16T16:57:28.791Z,99.30
2017-11-16T16:59:56.659Z,99.30
2017-11-16T17:02:24.563Z,99.10
2017-11-16T17:04:53.213Z,99.10
2017-11-16T17:07:21.080Z,99.10
2017-11-16T17:09:48.947Z,99.00
2017-11-16T17:12:16.817Z,99.10
2017-11-16T17:14:44.682Z,99.50
2017-11-16T17:17:12.550Z,99.20
2017-11-16T17:19:40.417Z,99.20
2017-11-16T17:22:08.284Z,99.00
2017-11-16T17:24:36.156Z,99.10
2017-11-16T17:27:04.018Z,99.30
2017-11-16T17:29:31.988Z,99.10
2017-11-16T17:31:59.855Z,99.20
2017-11-16T17:34:27.743Z,99.20
2017-11-16T17:36:55.594Z,99.10
2017-11-16T17:39:23.457Z,99.00
2017-11-16T17:41:51.325Z,98.90
2017-11-16T17:44:19.192Z,98.70
2017-11-16T17:46:47.066Z,98.80
2017-11-16T17:49:14.926Z,98.50
2017-11-16T17:51:42.795Z,98.50
2017-11-16T17:54:10.661Z,98.50
2017-11-16T17:56:38.530Z,98.30
2017-11-16T17:59:06.397Z,98.50
2017-11-16T18:01:34.263Z,98.40
2017-11-16T18:04:02.130Z,98.40
2017-11-16T18:06:29.998Z,98.60
2017-11-16T18:08:57.865Z,98.60
2017-11-16T18:11:25.732Z,98.80
2017-11-16T18:13:53.599Z,98.80
2017-11-16T18:16:21.467Z,98.70
2017-11-16T18:18:49.335Z,98.50
2017-11-16T18:21:17.204Z,98.60
2017-11-16T18:23:45.069Z,98.20
2017-11-16T18:26:12.936Z,98.20
2017-11-16T18:28:40.802Z,98.40
2017-11-16T18:31:08.670Z,98.50
2017-11-16T18:33:36.538Z,98.30
2017-11-16T18:36:04.406Z,98.20
2017-11-16T18:38:32.275Z,98.10
2017-11-16T18:41:00.138Z,98.10
2017-11-16T18:43:28.009Z,98.30
2017-11-16T18:45:55.874Z,98.40
2017-11-16T18:48:23.740Z,98.50
2017-11-16T18:50:51.609Z,98.40
2017-11-16T18:53:19.475Z,98.70
2017-11-16T18:55:47.343Z,98.70
2017-11-16T18:58:15.221Z,98.70
2017-11-16T19:00:43.078Z,98.70
2017-11-16T19:03:10.949Z,98.70
2017-11-16T19:05:38.813Z,98.50
2017-11-16T19:08:06.680Z,98.50
2017-11-16T19:10:34.547Z,98.50
2017-11-16T19:13:02.418Z,98.50
2017-11-16T19:15:30.282Z,98.50
2017-11-16T19:17:58.150Z,98.60
2017-11-16T19:20:26.016Z,98.60
2017-11-16T19:25:27.791Z,98.50
2017-11-16T19:27:55.661Z,98.50
2017-11-16T19:30:23.526Z,98.50
2017-11-16T19:32:51.402Z,98.50
2017-11-16T19:35:20.081Z,98.70
2017-11-16T19:37:47.949Z,98.70
2017-11-16T19:40:15.815Z,98.50
2017-11-16T19:42:43.684Z,98.50
2017-11-16T19:45:11.551Z,98.30
2017-11-16T19:47:39.417Z,98.30
2017-11-16T19:50:07.289Z,98.20
2017-11-16T19:52:35.155Z,98.20
2017-11-16T19:55:03.024Z,98.20
2017-11-16T19:57:30.888Z,98.20
2017-11-16T19:59:58.759Z,98.20
2017-11-16T20:02:26.559Z,98.10
2017-11-16T20:04:55.210Z,98.10
2017-11-16T20:07:23.077Z,98.10
2017-11-16T20:09:50.941Z,98.40
2017-11-16T20:12:18.807Z,98.50
2017-11-16T20:14:46.677Z,98.60
2017-11-16T20:17:14.542Z,98.60
2017-11-16T20:19:42.409Z,98.50
2017-11-16T20:22:10.276Z,98.30
2017-11-16T20:24:38.143Z,98.40
2017-11-16T20:27:06.012Z,98.40
2017-11-16T20:29:33.982Z,98.50
2017-11-16T20:32:01.852Z,98.40
2017-11-16T20:34:29.716Z,98.40
2017-11-16T20:37:15.402Z,98.70
2017-11-16T20:39:59.857Z,98.70
2017-11-16T20:42:33.187Z,98.30
2017-11-16T20:45:17.504Z,98.40
2017-11-16T20:47:46.192Z,98.40
2017-11-16T20:50:21.841Z,98.60
2017-11-16T20:53:01.588Z,98.60
2017-11-16T20:55:40.310Z,98.70
2017-11-16T20:58:08.179Z,98.90
2017-11-16T21:00:36.147Z,98.90
2017-11-16T21:03:04.014Z,98.90
2017-11-16T21:05:31.884Z,98.80
2017-11-16T21:07:59.748Z,98.90
2017-11-16T21:10:28.707Z,98.70
2017-11-16T21:12:56.712Z,98.60
2017-11-16T21:15:24.582Z,98.60
2017-11-16T21:17:53.979Z,98.50
2017-11-16T21:20:22.670Z,98.80
2017-11-16T21:22:50.537Z,98.90
2017-11-16T21:25:18.434Z,98.80
2017-11-16T21:27:47.028Z,99.10
2017-11-16T21:30:15.673Z,98.90
2017-11-16T21:32:43.544Z,99.00
2017-11-16T21:35:11.411Z,98.70
2017-11-16T21:37:39.278Z,98.40
2017-11-16T21:40:07.151Z,98.60
2017-11-16T21:42:35.012Z,98.60
2017-11-16T21:45:02.881Z,98.70
2017-11-16T21:47:30.850Z,98.80
2017-11-16T21:50:00.151Z,98.50
2017-11-16T21:52:28.016Z,98.60
2017-11-16T21:54:55.883Z,98.60
2017-11-16T21:57:23.750Z,98.70
2017-11-16T21:59:53.718Z,98.40
2017-11-16T22:02:29.501Z,98.40
2017-11-16T22:04:59.581Z,98.40
2017-11-16T22:07:28.327Z,98.20
2017-11-16T22:09:56.198Z,98.20
2017-11-16T22:12:24.062Z,98.60
2017-11-16T22:14:52.928Z,98.50
2017-11-16T22:17:20.822Z,98.50
2017-11-16T22:19:48.689Z,98.40
2017-11-16T22:22:16.559Z,98.40
2017-11-16T22:24:46.143Z,98.30
2017-11-16T22:27:14.135Z,98.20
2017-11-16T22:29:44.251Z,98.00
2017-11-16T22:35:05.692Z,97.90
2017-11-16T22:37:33.558Z,98.00
2017-11-16T22:40:01.363Z,98.20
2017-11-16T22:42:30.009Z,98.00
2017-11-16T22:44:57.877Z,98.00
2017-11-16T22:47:25.744Z,98.00
2017-11-16T22:49:53.612Z,98.20
2017-11-16T22:52:21.479Z,98.30
2017-11-16T22:54:49.350Z,98.20
2017-11-16T22:57:17.214Z,98.40
2017-11-16T22:59:45.017Z,98.50
2017-11-16T23:02:13.665Z,98.40
2017-11-16T23:04:41.532Z,98.40
2017-11-16T23:07:09.403Z,98.30
2017-11-16T23:09:37.269Z,98.20
2017-11-16T23:12:05.136Z,98.10
2017-11-16T23:14:33.003Z,98.30
2017-11-16T23:17:00.874Z,98.50
2017-11-16T23:19:28.742Z,98.50
2017-11-16T23:21:56.605Z,98.90
2017-11-16T23:24:24.473Z,99.10
2017-11-16T23:26:53.261Z,99.30
2017-11-16T23:29:21.130Z,99.20
2017-11-16T23:31:48.995Z,99.10
2017-11-16T23:34:16.863Z,99.20
2017-11-16T23:36:44.728Z,99.30
2017-11-16T23:39:12.597Z,99.40
2017-11-16T23:41:40.464Z,99.40
2017-11-16T23:44:08.343Z,99.70
2017-11-16T23:46:36.916Z,99.70
2017-11-16T23:49:04.783Z,99.80
2017-11-16T23:51:32.651Z,99.90
2017-11-16T23:54:00.518Z,99.80
2017-11-16T23:56:28.384Z,99.60
2017-11-16T23:58:56.251Z,99.80
